Flight Track Log - Related Links

Times and Time Zones

All times are in EDT time to prevent confusion due to time zone crossing. See the EJA951 flight status page for this flight to view local times or setup timezone preferences in your user account.

Time Position Orientation Groundspeed Altitude Reporting Facility
EDT Latitude Longitude Course Direction KTS MPH feet Rate Location/Type
Mon 10:42:30 AM 38.7939 -92.2350 260° West 183 211 2,300  Level Kansas City Center
Mon 10:42:45 AM 38.7919 -92.2489 260° West 201 231 3,100 3,385 Climbing Kansas City Center
Mon 10:43:48 AM 38.8447 -92.2906 328° Northwest 236 272 6,700 3,951 Climbing Kansas City Center
Mon 10:44:48 AM 38.8878 -92.3678 306° West 262 302 11,200 3,393 Climbing Kansas City Center
Mon 10:45:50 AM 38.9286 -92.4578 300° West 273 314 13,600 2,976 Climbing Kansas City Center
Mon 10:46:53 AM 38.9725 -92.5597 299° West 302 348 17,400 2,323 Climbing Kansas City Center
Mon 10:47:54 AM 39.0172 -92.6625 299° West 316 364 18,400 1,536 Climbing Kansas City Center
Mon 10:48:58 AM 39.0711 -92.7872 299° West 327 376 20,600 1,935 Climbing Kansas City Center
Mon 10:49:58 AM 39.1183 -92.8981 299° West 338 389 22,400 1,935 Climbing Kansas City Center
Mon 10:51:02 AM 39.1656 -93.0097 299° West 347 399 24,600 2,381 Climbing Kansas City Center
Mon 10:52:04 AM 39.2139 -93.1217 299° West 350 403 27,400 2,459 Climbing Kansas City Center
Mon 10:53:04 AM 39.2603 -93.2292 299° West 351 404 29,600 2,177 Climbing Kansas City Center
Mon 10:54:08 AM 39.3100 -93.3475 299° West 365 420 31,900 1,839 Climbing Kansas City Center
Mon 10:55:08 AM 39.3703 -93.4903 299° West 375 432 33,400 1,161 Climbing Kansas City Center
Mon 10:56:12 AM 39.4247 -93.6211 298° West 406 467 34,300 816 Climbing Kansas City Center
Mon 10:57:13 AM 39.4814 -93.7547 299° West 426 490 35,100 871 Climbing Kansas City Center
Mon 10:58:16 AM 39.5447 -93.9064 298° West 427 491 36,100 927 Climbing Kansas City Center
Mon 10:59:16 AM 39.5983 -94.0356 298° West 428 493 37,000 919 Climbing Kansas City Center
Mon 11:00:20 AM 39.6600 -94.1858 298° West 426 490 38,000 912 Climbing Kansas City Center
Mon 11:01:21 AM 39.7125 -94.3150 298° West 426 490 38,900 934 Climbing Kansas City Center
Mon 11:02:22 AM 39.7739 -94.4639 298° West 422 486 39,900 537 Climbing Kansas City Center
Mon 11:03:24 AM 39.8258 -94.5919 298° West 421 484 40,000 49 Climbing Kansas City Center
Mon 11:04:25 AM 39.8797 -94.7239 298° West 428 493 40,000  Level Kansas City Center
Mon 11:05:28 AM 39.9422 -94.8800 298° West 433 498 40,000  Level Kansas City Center
Mon 11:06:29 AM 39.9786 -95.0219 289° West 435 501 40,000  Level Kansas City Center
Mon 11:07:31 AM 40.0119 -95.1944 284° West 434 499 40,000  Level Kansas City Center
Mon 11:08:35 AM 40.0392 -95.3378 284° West 435 501 40,000  Level Kansas City Center
Mon 11:09:35 AM 40.0711 -95.5064 284° West 433 498 40,000  Level Kansas City Center
Mon 11:10:39 AM 40.0986 -95.6539 284° West 433 498 40,000  Level Kansas City Center
Mon 11:11:39 AM 40.1294 -95.8228 283° West 433 498 40,000  Level Kansas City Center
Mon 11:12:26 AM 40.1508 -95.9339 284° West 432 497 40,000  Level Minneapolis Center
Mon 11:13:28 AM 40.1789 -96.0867 284° West 432 497 40,000  Level Minneapolis Center
Mon 11:14:29 AM 40.2022 -96.2411 281° West 432 497 40,000  Level Minneapolis Center
Mon 11:15:31 AM 40.2042 -96.3964 271° West 430 495 40,000  Level Minneapolis Center
Mon 11:16:33 AM 40.2064 -96.5522 271° West 430 495 40,000  Level Minneapolis Center
Mon 11:17:35 AM 40.2092 -96.7428 271° West 430 495 40,000  Level Minneapolis Center
Mon 11:18:37 AM 40.2119 -96.9008 271° West 431 496 40,000  Level Minneapolis Center
Mon 11:19:39 AM 40.2139 -97.0586 271° West 431 496 40,000  Level Minneapolis Center
Mon 11:20:40 AM 40.2147 -97.2161 270° West 431 496 40,000  Level Minneapolis Center
Mon 11:21:43 AM 40.2167 -97.3728 271° West 431 496 40,000  Level Minneapolis Center
Mon 11:22:44 AM 40.2189 -97.5322 271° West 431 496 40,000  Level Minneapolis Center
Mon 11:23:46 AM 40.2197 -97.6925 270° West 434 499 40,000  Level Minneapolis Center
Mon 11:24:48 AM 40.2211 -97.8850 271° West 434 499 40,000  Level Minneapolis Center
Mon 11:25:50 AM 40.2217 -98.0447 270° West 435 501 40,000  Level Minneapolis Center
Mon 11:26:52 AM 40.2219 -98.2061 270° West 436 502 40,000  Level Minneapolis Center
Mon 11:27:53 AM 40.2219 -98.3678 270° West 440 506 40,000  Level Minneapolis Center
Mon 11:28:55 AM 40.2219 -98.5303 270° West 440 506 40,000  Level Minneapolis Center
Mon 11:29:57 AM 40.2219 -98.6917 270° West 440 506 40,000  Level Minneapolis Center
Mon 11:30:58 AM 40.2211 -98.8531 270° West 440 506 40,000  Level Minneapolis Center
Mon 11:32:00 AM 40.2108 -99.0139 265° West 440 506 40,000  Level Minneapolis Center
Mon 11:33:02 AM 40.2006 -99.1767 265° West 441 507 40,000  Level Minneapolis Center
Mon 11:34:03 AM 40.1867 -99.3722 265° West 445 512 40,000  Level Minneapolis Center
Mon 11:35:05 AM 40.1744 -99.5333 264° West 445 512 40,000  Level Minneapolis Center
Mon 11:36:10 AM 40.1628 -99.6972 265° West 446 513 40,000  Level Denver Center
Mon 11:37:12 AM 40.1506 -99.8600 264° West 448 516 40,000  Level Denver Center
Mon 11:38:14 AM 40.1369 -100.0306 264° West 449 517 40,000  Level Denver Center
Mon 11:39:16 AM 40.1231 -100.2131 264° West 449 517 40,000  Level Denver Center
Mon 11:40:18 AM 40.1108 -100.3672 264° West 448 516 40,000  Level Denver Center
Mon 11:41:21 AM 40.0961 -100.5497 264° West 449 517 40,000  Level Denver Center
Mon 11:42:23 AM 40.0833 -100.7047 264° West 448 516 40,000  Level Denver Center
Mon 11:43:25 AM 40.0711 -100.8606 264° West 448 516 40,000  Level Denver Center
Mon 11:44:27 AM 40.0547 -101.0419 263° West 448 516 40,000  Level Denver Center
Mon 11:45:29 AM 40.0419 -101.1969 264° West 449 517 40,000  Level Denver Center
Mon 11:46:31 AM 40.0253 -101.3786 263° West 449 517 40,000  Level Denver Center
Mon 11:47:33 AM 40.0103 -101.5336 263° West 449 517 40,000  Level Denver Center
Mon 11:48:47 AM 39.9939 -101.7161 263° West 449 517 40,000  Level Denver Center
Mon 11:49:50 AM 39.9753 -101.9225 263° West 449 517 40,000  Level Denver Center
Mon 11:50:52 AM 39.9606 -102.0778 263° West 450 518 40,000  Level Denver Center
Mon 11:51:54 AM 39.9461 -102.2322 263° West 450 518 40,000  Level Denver Center
Mon 11:52:56 AM 39.9283 -102.4142 263° West 450 518 40,000  Level Denver Center
Mon 11:53:58 AM 39.9131 -102.5706 263° West 453 521 40,000  Level Denver Center
Mon 11:55:00 AM 39.8931 -102.7550 262° West 454 522 40,000  Level Denver Center
Mon 11:56:02 AM 39.8761 -102.9192 262° West 455 524 40,000  Level Denver Center
Mon 11:57:16 AM 39.8600 -103.0831 263° West 457 526 40,000  Level Denver Center
Mon 11:58:19 AM 39.8394 -103.2803 262° West 459 528 40,000 -96 Level Denver Center
Mon 11:59:21 AM 39.8258 -103.4125 262° West 460 529 39,800 -677 Descending Denver Center
Mon 12:00:23 PM 39.8039 -103.6133 262° West 465 535 38,600 -1,152 Descending Denver Center
Mon 12:01:26 PM 39.7817 -103.8158 262° West 470 541 37,400 -1,056 Descending Denver Center
Mon 12:02:28 PM 39.7622 -103.9867 262° West 476 548 36,400 -968 Descending Denver Center
Mon 12:03:30 PM 39.7433 -104.1575 262° West 480 552 35,400 -968 Descending Denver Center
Mon 12:04:32 PM 39.7242 -104.3244 262° West 472 543 34,400 -976 Descending Denver Center
Mon 12:05:33 PM 39.7056 -104.4833 261° West 453 521 33,400 -1,065 Descending Denver Center
Mon 12:06:36 PM 39.6842 -104.6700 262° West 450 518 32,200 -1,008 Descending Denver Center
Mon 12:07:38 PM 39.6689 -104.8242 263° West 448 516 31,300 -1,016 Descending Denver Center
Mon 12:08:40 PM 39.6489 -105.0258 263° West 475 547 30,100 -871 Descending Denver Center
Mon 12:09:42 PM 39.6314 -105.1928 262° West 474 545 29,500 -1,113 Descending Denver Center
Mon 12:10:44 PM 39.6128 -105.3639 262° West 477 549 27,800 -1,839 Descending Denver Center
Mon 12:11:46 PM 39.5953 -105.5292 262° West 469 540 25,700 -2,016 Descending Denver Center
Mon 12:12:49 PM 39.5789 -105.6753 262° West 416 479 23,600 -2,016 Descending Denver Center
Mon 12:13:51 PM 39.5656 -105.8047 262° West 366 421 21,500 -1,742 Descending Denver Center
Mon 12:14:53 PM 39.5500 -105.9444 262° West 334 384 20,000 -726 Descending Denver Center
Mon 12:15:55 PM 39.5367 -106.0611 262° West 331 381 20,000  Level Denver Center
Mon 12:16:57 PM 39.5222 -106.1931 262° West 344 396 20,000  Level Denver Center
Mon 12:17:59 PM 39.5072 -106.3208 261° West 354 407 20,000  Level Denver Center
Mon 12:19:01 PM 39.4928 -106.4419 261° West 342 394 20,000 -387 Level Denver Center
Mon 12:20:03 PM 39.4789 -106.5633 262° West 322 371 19,200 -1,500 Descending Denver Center
Mon 12:21:05 PM 39.4664 -106.6672 261° West 309 356 16,900 -2,323 Descending Denver Center
Mon 12:22:07 PM 39.4525 -106.7839 261° West 294 338 14,400 -1,645 Descending Denver Center
Mon 12:23:09 PM 39.4331 -106.8603 252° West 246 283 13,500 -1,065 Descending Denver Center
Mon 12:24:11 PM 39.3953 -106.9175 230° Southwest 225 259 12,200 -1,210 Descending Denver Center
Mon 12:25:13 PM 39.3600 -106.9342 200° South 189 217 11,000 -1,392 Descending Denver Center
Mon 12:26:16 PM 39.2994 -106.9231 172° South 170 196 9,300 -1,200 Descending Denver Center
Mon 12:27:18 PM 39.2633 -106.8889 144° Southeast 168 193 8,500 -774 Descending Denver Center

Login

Don't have an account? Register now (free) for customized features, flight alerts, and more!